createdAt,value
2019-02-15T00:01:01.264Z,19.30
2019-02-15T00:03:31.418Z,19.30
2019-02-15T00:06:01.528Z,19.30
2019-02-15T00:08:31.722Z,19.30
2019-02-15T00:11:01.950Z,19.30
2019-02-15T00:13:32.099Z,19.30
2019-02-15T00:16:02.299Z,19.30
2019-02-15T00:18:56.612Z,19.30
2019-02-15T00:21:29.812Z,19.20
2019-02-15T00:23:59.836Z,19.20
2019-02-15T00:26:31.757Z,19.20
2019-02-15T00:29:03.350Z,19.20
2019-02-15T00:31:33.596Z,19.20
2019-02-15T00:34:06.419Z,19.20
2019-02-15T00:36:36.629Z,19.20
2019-02-15T00:39:07.639Z,19.20
2019-02-15T00:41:37.837Z,19.20
2019-02-15T00:44:08.156Z,19.20
2019-02-15T00:46:57.496Z,19.20
2019-02-15T00:49:43.535Z,19.20
2019-02-15T00:52:22.859Z,19.20
2019-02-15T00:55:00.056Z,19.20
2019-02-15T00:57:51.796Z,19.20
2019-02-15T01:00:40.939Z,19.20
2019-02-15T01:03:48.399Z,19.20
2019-02-15T01:06:47.804Z,19.20
2019-02-15T01:09:31.548Z,19.10
2019-02-15T01:12:20.562Z,19.20
2019-02-15T01:14:50.711Z,19.20
2019-02-15T01:17:20.854Z,19.10
2019-02-15T01:19:54.000Z,19.20
2019-02-15T01:22:24.293Z,19.10
2019-02-15T01:24:54.339Z,19.10
2019-02-15T01:27:29.796Z,19.10
2019-02-15T01:30:17.904Z,19.10
2019-02-15T01:33:13.234Z,19.10
2019-02-15T01:35:49.785Z,19.10
2019-02-15T01:38:46.273Z,19.10
2019-02-15T01:41:37.241Z,19.10
2019-02-15T01:44:12.991Z,19.10
2019-02-15T01:47:08.084Z,19.10
2019-02-15T01:49:38.339Z,19.10
2019-02-15T01:52:08.424Z,19.10
2019-02-15T01:54:38.764Z,19.10
2019-02-15T01:57:09.788Z,19.10
2019-02-15T01:59:40.004Z,19.10
2019-02-15T02:02:10.152Z,19.10
2019-02-15T02:04:40.384Z,19.10
2019-02-15T02:07:10.635Z,19.10
2019-02-15T02:09:40.834Z,19.10
2019-02-15T02:12:11.474Z,19.10
2019-02-15T02:14:41.590Z,19.10
2019-02-15T02:17:11.608Z,19.10
2019-02-15T02:19:41.556Z,19.10
2019-02-15T02:22:11.577Z,19.10
2019-02-15T02:24:41.537Z,19.10
2019-02-15T02:27:11.490Z,19.10
2019-02-15T02:29:41.769Z,19.10
2019-02-15T02:32:11.835Z,19.10
2019-02-15T02:34:42.034Z,19.10
2019-02-15T02:37:12.341Z,19.00
2019-02-15T02:39:42.827Z,19.00
2019-02-15T02:42:13.184Z,19.10
2019-02-15T02:44:43.404Z,19.00
2019-02-15T02:47:13.590Z,19.00
2019-02-15T02:49:43.604Z,19.00
2019-02-15T02:52:13.663Z,19.00
2019-02-15T02:54:43.674Z,19.00
2019-02-15T02:57:13.696Z,19.00
2019-02-15T02:59:43.597Z,19.00
2019-02-15T03:02:13.761Z,19.00
2019-02-15T03:04:44.065Z,19.00
2019-02-15T03:07:14.403Z,19.00
2019-02-15T03:09:44.590Z,19.00
2019-02-15T03:12:14.817Z,19.00
2019-02-15T03:14:45.023Z,19.00
2019-02-15T03:17:15.341Z,19.00
2019-02-15T03:19:45.406Z,19.00
2019-02-15T03:22:15.423Z,19.00
2019-02-15T03:24:45.877Z,19.00
2019-02-15T03:27:16.124Z,19.00
2019-02-15T03:29:46.413Z,19.00
2019-02-15T03:32:16.638Z,19.00
2019-02-15T03:34:46.931Z,19.00
2019-02-15T03:37:34.863Z,19.00
2019-02-15T03:40:14.107Z,18.90
2019-02-15T03:42:44.122Z,18.90
2019-02-15T03:45:16.039Z,18.90
2019-02-15T03:47:46.095Z,19.00
2019-02-15T03:50:16.209Z,18.90
2019-02-15T03:52:46.264Z,18.90
2019-02-15T03:55:16.448Z,19.00
2019-02-15T03:57:46.574Z,18.90
2019-02-15T04:00:16.903Z,18.90
2019-02-15T04:02:47.280Z,18.90
2019-02-15T04:05:17.575Z,18.90
2019-02-15T04:07:47.783Z,18.90
2019-02-15T04:10:18.163Z,18.90
2019-02-15T04:12:49.296Z,18.90
2019-02-15T04:15:19.500Z,18.90
2019-02-15T04:17:49.685Z,18.90
2019-02-15T04:20:19.763Z,18.90
2019-02-15T04:22:50.029Z,18.90
2019-02-15T04:25:20.156Z,18.90
2019-02-15T04:27:50.382Z,18.90
2019-02-15T04:30:20.742Z,18.90
2019-02-15T04:32:50.937Z,18.90
2019-02-15T04:35:21.046Z,18.90
2019-02-15T04:37:51.272Z,18.90
2019-02-15T04:40:21.338Z,18.90
2019-02-15T04:42:51.463Z,18.90
2019-02-15T04:45:21.834Z,18.90
2019-02-15T04:47:51.977Z,18.90
2019-02-15T04:50:22.313Z,18.90
2019-02-15T04:52:52.387Z,18.90
2019-02-15T04:55:22.478Z,18.90
2019-02-15T04:57:52.804Z,18.90
2019-02-15T05:00:23.117Z,18.90
2019-02-15T05:02:53.205Z,18.90
2019-02-15T05:05:23.286Z,18.90
2019-02-15T05:07:53.472Z,18.90
2019-02-15T05:10:23.459Z,18.90
2019-02-15T05:12:53.736Z,18.80
2019-02-15T05:15:23.742Z,18.80
2019-02-15T05:17:53.755Z,18.80
2019-02-15T05:20:24.188Z,18.80
2019-02-15T05:22:54.223Z,18.80
2019-02-15T05:25:24.317Z,18.80
2019-02-15T05:27:54.304Z,18.80
2019-02-15T05:30:24.380Z,18.80
2019-02-15T05:32:54.602Z,18.80
2019-02-15T05:35:24.779Z,18.80
2019-02-15T05:37:54.872Z,18.80
2019-02-15T05:40:25.136Z,18.80
2019-02-15T05:42:55.174Z,18.80
2019-02-15T05:45:25.152Z,18.80
2019-02-15T05:47:55.231Z,18.80
2019-02-15T05:50:25.106Z,18.80
2019-02-15T05:52:55.255Z,18.80
2019-02-15T05:55:25.428Z,18.80
2019-02-15T05:57:55.653Z,18.80
2019-02-15T06:00:36.447Z,18.80
2019-02-15T06:02:57.965Z,18.80
2019-02-15T06:05:28.391Z,18.80
2019-02-15T06:07:58.480Z,18.70
2019-02-15T06:10:28.770Z,18.70
2019-02-15T06:12:58.987Z,18.70
2019-02-15T06:15:29.321Z,18.70
2019-02-15T06:17:59.572Z,18.80
2019-02-15T06:20:29.527Z,18.80
2019-02-15T06:22:59.696Z,18.80
2019-02-15T06:25:29.876Z,18.80
2019-02-15T06:28:00.421Z,18.80
2019-02-15T06:30:30.708Z,18.80
2019-02-15T06:33:00.731Z,18.80
2019-02-15T06:35:33.004Z,18.80
2019-02-15T06:38:02.671Z,18.80
2019-02-15T06:40:32.998Z,18.80
2019-02-15T06:43:03.097Z,18.80
2019-02-15T06:45:33.231Z,18.80
2019-02-15T06:48:03.366Z,18.90
2019-02-15T06:50:33.469Z,18.90
2019-02-15T06:53:03.734Z,18.90
2019-02-15T06:55:34.010Z,18.90
2019-02-15T06:58:04.048Z,18.90
2019-02-15T07:00:51.990Z,18.90
2019-02-15T07:03:43.829Z,18.90
2019-02-15T07:06:14.166Z,18.90
2019-02-15T07:08:44.201Z,18.90
2019-02-15T07:11:14.192Z,18.80
2019-02-15T07:13:44.320Z,18.80
2019-02-15T07:16:14.582Z,18.80
2019-02-15T07:18:44.624Z,18.80
2019-02-15T07:21:15.079Z,18.80
2019-02-15T07:23:45.167Z,18.80
2019-02-15T07:26:15.485Z,18.80
2019-02-15T07:28:45.748Z,18.80
2019-02-15T07:31:15.755Z,18.80
2019-02-15T07:33:45.797Z,18.80
2019-02-15T07:36:15.892Z,18.80
2019-02-15T07:38:45.939Z,18.80
2019-02-15T07:41:16.054Z,18.80
2019-02-15T07:43:46.111Z,18.80
2019-02-15T07:46:16.313Z,18.80
2019-02-15T07:48:46.488Z,18.70
2019-02-15T07:51:16.468Z,18.70
2019-02-15T07:53:46.792Z,18.70
2019-02-15T07:56:17.033Z,18.70
2019-02-15T07:58:47.128Z,18.80
2019-02-15T08:01:17.350Z,18.70
2019-02-15T08:03:47.571Z,18.70
2019-02-15T08:06:17.943Z,18.70
2019-02-15T08:08:48.048Z,18.70
2019-02-15T08:11:18.359Z,18.80
2019-02-15T08:13:48.650Z,18.70
2019-02-15T08:16:18.946Z,18.70
2019-02-15T08:18:49.055Z,18.80
2019-02-15T08:21:19.223Z,19.00
2019-02-15T08:23:49.510Z,19.20
2019-02-15T08:26:19.764Z,19.70
2019-02-15T08:28:49.868Z,20.10
2019-02-15T08:31:20.099Z,20.40
2019-02-15T08:33:50.148Z,20.30
2019-02-15T08:36:20.307Z,20.20
2019-02-15T08:38:50.552Z,20.20
2019-02-15T08:41:20.781Z,20.20
2019-02-15T08:43:50.888Z,20.30
2019-02-15T08:46:21.144Z,20.30
2019-02-15T08:48:51.201Z,20.30
2019-02-15T08:51:21.221Z,20.30
2019-02-15T08:53:51.280Z,20.40
2019-02-15T08:56:21.451Z,20.40
2019-02-15T08:58:51.584Z,20.40
2019-02-15T09:01:22.450Z,20.50
2019-02-15T09:03:52.628Z,20.50
2019-02-15T09:06:22.785Z,20.50
2019-02-15T09:08:52.976Z,20.60
2019-02-15T09:11:23.168Z,20.60
2019-02-15T09:13:53.333Z,20.70
2019-02-15T09:16:23.433Z,20.60
2019-02-15T09:18:53.475Z,20.70
2019-02-15T09:21:23.624Z,20.70
2019-02-15T09:23:53.602Z,20.80
2019-02-15T09:26:23.729Z,20.80
2019-02-15T09:29:11.903Z,20.80
2019-02-15T09:31:41.908Z,20.80
2019-02-15T09:34:11.926Z,20.80
2019-02-15T09:36:42.008Z,20.80
2019-02-15T09:39:11.809Z,20.80
2019-02-15T09:41:41.917Z,20.90
2019-02-15T09:44:11.875Z,20.90
2019-02-15T09:46:41.972Z,20.90
2019-02-15T09:49:12.152Z,20.90
2019-02-15T09:51:42.380Z,21.00
2019-02-15T09:54:12.507Z,21.00
2019-02-15T09:56:42.619Z,21.00
2019-02-15T09:59:12.771Z,21.00
2019-02-15T10:01:42.876Z,21.00
2019-02-15T10:04:13.031Z,21.00
2019-02-15T10:06:43.299Z,21.00
2019-02-15T10:09:13.397Z,21.00
2019-02-15T10:11:43.620Z,21.10
2019-02-15T10:14:13.820Z,21.00
2019-02-15T10:16:43.856Z,21.10
2019-02-15T10:19:22.179Z,20.80
2019-02-15T10:21:45.765Z,20.90
2019-02-15T10:24:15.958Z,20.40
2019-02-15T10:26:46.011Z,20.20
2019-02-15T10:29:16.221Z,20.20
2019-02-15T10:31:46.446Z,20.30
2019-02-15T10:34:16.704Z,20.00
2019-02-15T10:36:46.707Z,19.60
2019-02-15T10:39:17.020Z,19.50
2019-02-15T10:41:47.347Z,19.50
2019-02-15T10:44:18.020Z,19.30
2019-02-15T10:46:48.324Z,19.60
2019-02-15T10:49:18.482Z,19.80
2019-02-15T10:51:48.612Z,19.80
2019-02-15T10:54:18.798Z,19.70
2019-02-15T10:56:48.898Z,19.90
2019-02-15T10:59:18.944Z,19.80
2019-02-15T11:01:49.151Z,19.60
2019-02-15T11:04:20.280Z,19.40
2019-02-15T11:06:50.464Z,19.00
2019-02-15T11:09:25.425Z,19.20
2019-02-15T11:11:55.604Z,19.60
2019-02-15T11:14:25.745Z,19.50
2019-02-15T11:16:55.804Z,19.50
2019-02-15T11:19:25.930Z,19.60
2019-02-15T11:21:56.195Z,19.60
2019-02-15T11:24:26.299Z,19.60
2019-02-15T11:30:30.444Z,19.70
2019-02-15T11:33:00.468Z,19.60
2019-02-15T11:35:30.678Z,19.60
2019-02-15T11:38:00.862Z,19.70
2019-02-15T11:40:30.887Z,19.70
2019-02-15T11:43:00.911Z,19.60
2019-02-15T11:45:32.111Z,19.60
2019-02-15T11:48:02.337Z,19.60
2019-02-15T11:50:32.520Z,19.60
2019-02-15T11:53:02.840Z,19.60
2019-02-15T11:55:32.835Z,19.50
2019-02-15T11:58:02.997Z,19.50
2019-02-15T12:00:34.475Z,19.40
2019-02-15T12:03:04.678Z,19.40
2019-02-15T12:05:34.717Z,19.40
2019-02-15T12:08:04.976Z,19.20
2019-02-15T12:10:35.189Z,19.30
2019-02-15T12:13:06.435Z,19.30
2019-02-15T12:15:37.484Z,19.30
2019-02-15T12:18:07.659Z,19.30
2019-02-15T12:20:37.927Z,19.30
2019-02-15T12:23:08.133Z,19.30
2019-02-15T12:25:38.372Z,19.40
2019-02-15T12:28:08.496Z,19.40
2019-02-15T12:30:38.624Z,19.50
2019-02-15T12:33:08.905Z,19.30
2019-02-15T12:35:39.125Z,19.30
2019-02-15T12:38:09.311Z,19.30
2019-02-15T12:40:39.408Z,19.30
2019-02-15T12:43:10.396Z,19.30
2019-02-15T12:45:40.528Z,19.30
2019-02-15T12:48:10.668Z,19.10
2019-02-15T12:50:41.475Z,19.20
2019-02-15T12:53:11.648Z,19.20
2019-02-15T12:55:41.919Z,19.10
2019-02-15T12:58:12.139Z,19.10
2019-02-15T13:00:43.396Z,19.30
2019-02-15T13:03:13.443Z,19.40
2019-02-15T13:05:45.582Z,19.30
2019-02-15T13:08:15.774Z,19.30
2019-02-15T13:10:45.790Z,19.10
2019-02-15T13:13:15.974Z,19.20
2019-02-15T13:15:46.083Z,19.30
2019-02-15T13:18:16.230Z,19.30
2019-02-15T13:20:46.444Z,19.40
2019-02-15T13:23:16.518Z,19.40
2019-02-15T13:25:46.671Z,19.40
2019-02-15T13:28:16.908Z,19.50
2019-02-15T13:30:46.917Z,19.40
2019-02-15T13:33:17.045Z,19.40
2019-02-15T13:35:47.175Z,19.50
2019-02-15T13:38:17.422Z,19.50
2019-02-15T13:40:47.563Z,19.60
2019-02-15T13:43:17.669Z,19.60
2019-02-15T13:45:48.079Z,19.70
2019-02-15T13:48:18.076Z,19.70
2019-02-15T13:50:48.112Z,19.70
2019-02-15T13:53:19.399Z,19.70
2019-02-15T13:55:49.951Z,19.60
2019-02-15T13:58:19.947Z,19.40
2019-02-15T14:00:50.490Z,19.40
2019-02-15T14:03:20.680Z,19.50
2019-02-15T14:05:50.793Z,19.50
2019-02-15T14:08:21.000Z,19.50
2019-02-15T14:10:51.316Z,19.60
2019-02-15T14:13:21.438Z,19.60
2019-02-15T14:15:51.708Z,19.50
2019-02-15T14:18:22.020Z,19.50
2019-02-15T14:20:52.180Z,19.30
2019-02-15T14:23:22.348Z,19.40
2019-02-15T14:25:52.451Z,19.30
2019-02-15T14:28:22.835Z,19.20
2019-02-15T14:30:52.997Z,19.20
2019-02-15T14:33:23.107Z,19.20
2019-02-15T14:35:53.202Z,19.30
2019-02-15T14:38:23.359Z,19.40
2019-02-15T14:40:53.448Z,19.50
2019-02-15T14:43:23.515Z,19.50
2019-02-15T14:45:53.697Z,19.60
2019-02-15T14:48:23.622Z,19.60
2019-02-15T14:50:53.695Z,19.50
2019-02-15T14:53:23.708Z,19.50
2019-02-15T14:55:58.426Z,19.50
2019-02-15T14:58:28.692Z,19.40
2019-02-15T15:00:58.813Z,19.30
2019-02-15T15:03:29.356Z,19.20
2019-02-15T15:06:05.797Z,19.20
2019-02-15T15:08:35.932Z,19.30
2019-02-15T15:11:07.006Z,19.30
2019-02-15T15:13:36.996Z,19.30
2019-02-15T15:16:07.211Z,19.30
2019-02-15T15:18:37.459Z,19.30
2019-02-15T15:21:09.918Z,19.30
2019-02-15T15:23:40.052Z,19.30
2019-02-15T15:26:12.054Z,19.20
2019-02-15T15:28:41.901Z,19.30
2019-02-15T15:31:11.889Z,19.30
2019-02-15T15:33:42.120Z,19.30
2019-02-15T15:36:12.320Z,19.30
2019-02-15T15:38:42.600Z,19.30
2019-02-15T15:41:12.728Z,19.20
2019-02-15T15:43:42.948Z,19.20
2019-02-15T15:46:13.216Z,19.20
2019-02-15T15:48:43.228Z,19.20
2019-02-15T15:51:13.402Z,19.10
2019-02-15T15:53:43.574Z,19.10
2019-02-15T15:56:13.672Z,19.10
2019-02-15T15:58:43.976Z,19.10
2019-02-15T16:01:14.062Z,19.10
2019-02-15T16:03:44.115Z,19.10
2019-02-15T16:06:23.838Z,19.00
2019-02-15T16:08:46.371Z,19.00
2019-02-15T16:11:16.464Z,19.00
2019-02-15T16:13:46.576Z,19.00
2019-02-15T16:16:16.813Z,18.90
2019-02-15T16:18:46.970Z,19.00
2019-02-15T16:21:17.080Z,19.00
2019-02-15T16:23:47.036Z,19.10
2019-02-15T16:26:17.185Z,19.10
2019-02-15T16:28:47.396Z,19.00
2019-02-15T16:31:17.624Z,19.10
2019-02-15T16:33:47.747Z,19.20
2019-02-15T16:36:38.537Z,19.20
2019-02-15T16:39:08.757Z,19.20
2019-02-15T16:41:45.965Z,19.10
2019-02-15T16:44:17.029Z,19.10
2019-02-15T16:46:47.169Z,19.20
2019-02-15T16:49:17.272Z,19.10
2019-02-15T16:51:47.432Z,19.20
2019-02-15T16:54:17.652Z,19.20
2019-02-15T16:56:48.064Z,19.20
2019-02-15T16:59:18.208Z,19.20
2019-02-15T17:01:48.943Z,19.20
2019-02-15T17:04:19.313Z,19.10
2019-02-15T17:06:49.469Z,19.00
2019-02-15T17:09:19.778Z,19.00
2019-02-15T17:11:49.819Z,18.90
2019-02-15T17:14:20.046Z,18.90
2019-02-15T17:16:55.548Z,18.90
2019-02-15T17:19:26.037Z,19.00
2019-02-15T17:21:56.121Z,18.90
2019-02-15T17:24:26.344Z,19.00
2019-02-15T17:27:00.581Z,19.00
2019-02-15T17:29:33.865Z,19.00
2019-02-15T17:32:03.964Z,19.00
2019-02-15T17:34:34.123Z,18.90
2019-02-15T17:37:04.238Z,19.10
2019-02-15T17:39:34.638Z,19.10
2019-02-15T17:42:06.463Z,19.10
2019-02-15T17:44:36.705Z,19.10
2019-02-15T17:47:07.287Z,19.10
2019-02-15T17:49:37.443Z,19.00
2019-02-15T17:52:07.937Z,18.90
2019-02-15T17:54:39.253Z,18.90
2019-02-15T17:57:09.813Z,18.80
2019-02-15T17:59:40.067Z,18.80
2019-02-15T18:02:10.552Z,18.80
2019-02-15T18:04:40.756Z,18.80
2019-02-15T18:07:10.893Z,18.80
2019-02-15T18:09:41.181Z,18.80
2019-02-15T18:12:12.110Z,18.80
2019-02-15T18:14:42.438Z,18.80
2019-02-15T18:17:12.657Z,18.70
2019-02-15T18:19:47.296Z,18.70
2019-02-15T18:22:14.823Z,18.60
2019-02-15T18:24:47.173Z,18.50
2019-02-15T18:27:17.379Z,18.50
2019-02-15T18:29:47.474Z,18.50
2019-02-15T18:32:17.883Z,18.40
2019-02-15T18:34:47.970Z,18.40
2019-02-15T18:37:18.028Z,18.40
2019-02-15T18:39:48.065Z,18.30
2019-02-15T18:42:18.155Z,18.40
2019-02-15T18:44:48.292Z,18.40
2019-02-15T18:47:18.466Z,18.40
2019-02-15T18:49:48.580Z,18.40
2019-02-15T18:52:23.061Z,18.30
2019-02-15T18:54:54.928Z,18.30
2019-02-15T18:57:25.320Z,18.30
2019-02-15T18:59:55.293Z,18.30
2019-02-15T19:02:25.777Z,18.20
2019-02-15T19:04:55.954Z,18.20
2019-02-15T19:07:27.166Z,18.30
2019-02-15T19:09:57.269Z,18.30
2019-02-15T19:12:27.461Z,18.20
2019-02-15T19:14:57.607Z,18.30
2019-02-15T19:17:27.851Z,18.20
2019-02-15T19:19:58.140Z,18.30
2019-02-15T19:22:28.353Z,18.30
2019-02-15T19:24:58.476Z,18.40
2019-02-15T19:27:31.783Z,18.30
2019-02-15T19:30:02.002Z,18.40
2019-02-15T19:32:32.187Z,18.40
2019-02-15T19:35:02.312Z,18.30
2019-02-15T19:37:32.459Z,18.30
2019-02-15T19:40:02.624Z,18.30
2019-02-15T19:42:34.224Z,18.40
2019-02-15T19:45:04.977Z,18.40
2019-02-15T19:47:36.130Z,18.30
2019-02-15T19:50:08.202Z,18.40
2019-02-15T19:52:38.214Z,18.40
2019-02-15T19:55:09.146Z,18.40
2019-02-15T19:57:39.536Z,18.30
2019-02-15T20:00:12.978Z,18.30
2019-02-15T20:02:43.245Z,18.30
2019-02-15T20:05:13.347Z,18.20
2019-02-15T20:07:43.453Z,18.30
2019-02-15T20:10:15.261Z,18.20
2019-02-15T20:12:45.287Z,18.20
2019-02-15T20:15:15.800Z,18.20
2019-02-15T20:17:46.022Z,18.20
2019-02-15T20:20:16.026Z,18.20
2019-02-15T20:22:46.090Z,18.20
2019-02-15T20:25:16.216Z,18.20
2019-02-15T20:27:46.372Z,18.20
2019-02-15T20:30:17.711Z,18.20
2019-02-15T20:32:48.076Z,18.10
2019-02-15T20:35:18.256Z,18.10
2019-02-15T20:37:48.419Z,18.00
2019-02-15T20:40:18.662Z,18.00
2019-02-15T20:42:48.724Z,18.00
2019-02-15T20:45:19.996Z,18.00
2019-02-15T20:47:50.026Z,18.00
2019-02-15T20:50:20.151Z,18.00
2019-02-15T20:52:50.382Z,18.00
2019-02-15T20:55:20.638Z,17.90
2019-02-15T20:57:50.777Z,17.80
2019-02-15T21:00:23.632Z,17.70
2019-02-15T21:02:53.774Z,17.90
2019-02-15T21:05:23.918Z,17.90
2019-02-15T21:07:54.019Z,17.90
2019-02-15T21:10:24.213Z,18.00
2019-02-15T21:12:54.373Z,17.90
2019-02-15T21:15:24.444Z,18.00
2019-02-15T21:17:54.737Z,18.00
2019-02-15T21:20:24.965Z,18.00
2019-02-15T21:22:54.939Z,18.00
2019-02-15T21:25:25.078Z,18.00
2019-02-15T21:27:55.159Z,17.90
2019-02-15T21:30:26.059Z,17.90
2019-02-15T21:32:56.958Z,17.90
2019-02-15T21:35:27.593Z,17.90
2019-02-15T21:37:57.669Z,17.90
2019-02-15T21:40:27.960Z,17.90
2019-02-15T21:42:58.184Z,17.90
2019-02-15T21:45:28.352Z,17.90
2019-02-15T21:47:58.439Z,17.90
2019-02-15T21:50:28.680Z,17.80
2019-02-15T21:52:58.943Z,17.80
2019-02-15T21:55:29.075Z,17.60
2019-02-15T21:58:01.449Z,17.50
2019-02-15T22:00:31.218Z,17.50
2019-02-15T22:03:01.610Z,17.40
2019-02-15T22:05:32.851Z,17.50
2019-02-15T22:08:03.083Z,17.50
2019-02-15T22:10:34.097Z,17.40
2019-02-15T22:13:05.852Z,17.40
2019-02-15T22:15:35.976Z,17.40
2019-02-15T22:18:06.244Z,17.40
2019-02-15T22:20:37.419Z,17.30
2019-02-15T22:23:07.776Z,17.40
2019-02-15T22:25:37.976Z,17.40
2019-02-15T22:28:08.204Z,17.40
2019-02-15T22:30:38.173Z,17.40
2019-02-15T22:33:08.315Z,17.40
2019-02-15T22:35:38.612Z,17.40
2019-02-15T22:38:08.788Z,17.40
2019-02-15T22:40:40.723Z,17.30
2019-02-15T22:43:16.296Z,17.40
2019-02-15T22:45:46.450Z,17.40
2019-02-15T22:48:16.714Z,17.40
2019-02-15T22:50:47.147Z,17.40
2019-02-15T22:53:17.208Z,17.40
2019-02-15T22:55:47.432Z,17.30
2019-02-15T22:58:17.584Z,17.40
2019-02-15T23:01:14.400Z,17.30
2019-02-15T23:03:44.388Z,17.30
2019-02-15T23:06:14.436Z,17.20
2019-02-15T23:08:47.619Z,17.20
2019-02-15T23:11:17.821Z,17.20
2019-02-15T23:13:48.096Z,17.20
2019-02-15T23:16:18.117Z,17.10
2019-02-15T23:18:48.041Z,17.20
2019-02-15T23:21:18.153Z,17.20
2019-02-15T23:23:48.278Z,17.20
2019-02-15T23:26:18.350Z,17.20
2019-02-15T23:28:48.431Z,17.20
2019-02-15T23:31:18.428Z,17.20
2019-02-15T23:33:48.560Z,17.10
2019-02-15T23:36:18.721Z,17.10
2019-02-15T23:38:48.811Z,17.10
2019-02-15T23:41:19.031Z,17.10
2019-02-15T23:43:48.984Z,17.20
2019-02-15T23:46:18.965Z,17.20
2019-02-15T23:48:49.028Z,17.20
2019-02-15T23:51:19.080Z,17.20
2019-02-15T23:53:49.165Z,17.10
2019-02-15T23:56:19.240Z,17.20
2019-02-15T23:58:49.193Z,17.20
